createdAt,value
2022-10-14T00:01:39.482Z,11.73
2022-10-14T00:04:08.088Z,11.60
2022-10-14T00:06:36.287Z,11.57
2022-10-14T00:09:07.164Z,11.43
2022-10-14T00:11:38.485Z,11.44
2022-10-14T00:14:08.961Z,11.37
2022-10-14T00:16:39.415Z,11.43
2022-10-14T00:19:09.218Z,11.40
2022-10-14T00:21:39.738Z,11.43
2022-10-14T00:24:10.627Z,11.36
2022-10-14T00:26:41.251Z,11.31
2022-10-14T00:29:12.324Z,11.41
2022-10-14T00:31:40.624Z,11.40
2022-10-14T00:34:08.675Z,11.32
2022-10-14T00:36:36.737Z,11.23
2022-10-14T00:39:04.832Z,11.32
2022-10-14T00:41:35.639Z,11.41
2022-10-14T00:44:07.329Z,11.42
2022-10-14T00:46:37.021Z,11.40
2022-10-14T00:49:10.631Z,11.45
2022-10-14T00:51:40.809Z,11.42
2022-10-14T00:54:09.368Z,11.37
2022-10-14T00:56:37.882Z,11.36
2022-10-14T00:59:13.706Z,11.43
2022-10-14T01:01:41.909Z,11.39
2022-10-14T01:04:09.986Z,11.27
2022-10-14T01:06:45.427Z,11.40
2022-10-14T01:09:25.545Z,11.46
2022-10-14T01:12:27.670Z,11.44
2022-10-14T01:15:00.101Z,11.39
2022-10-14T01:17:36.848Z,11.39
2022-10-14T01:20:40.797Z,11.36
2022-10-14T01:23:40.514Z,11.30
2022-10-14T01:26:26.380Z,11.27
2022-10-14T01:29:08.414Z,11.32
2022-10-14T01:31:42.886Z,11.40
2022-10-14T01:34:14.493Z,11.39
2022-10-14T01:36:47.514Z,11.37
2022-10-14T01:39:19.826Z,11.38
2022-10-14T01:41:52.306Z,11.36
2022-10-14T01:44:23.668Z,11.28
2022-10-14T01:46:56.797Z,11.30
2022-10-14T01:49:29.865Z,11.00
2022-10-14T01:52:03.346Z,11.14
2022-10-14T01:54:34.023Z,11.24
2022-10-14T01:57:06.309Z,11.11
2022-10-14T01:59:37.171Z,11.12
2022-10-14T02:02:06.670Z,11.18
2022-10-14T02:04:34.786Z,11.11
2022-10-14T02:07:08.003Z,11.15
2022-10-14T02:09:44.763Z,11.31
2022-10-14T02:12:24.527Z,11.38
2022-10-14T02:15:01.801Z,11.40
2022-10-14T02:17:37.273Z,11.27
2022-10-14T02:20:14.261Z,11.34
2022-10-14T02:22:51.585Z,11.37
2022-10-14T02:25:29.749Z,11.32
2022-10-14T02:28:01.301Z,11.34
2022-10-14T02:30:32.592Z,11.32
2022-10-14T02:33:02.946Z,11.30
2022-10-14T02:35:32.549Z,11.34
2022-10-14T02:38:06.332Z,11.26
2022-10-14T02:40:39.793Z,11.33
2022-10-14T02:43:10.231Z,11.34
2022-10-14T02:45:39.120Z,11.32
2022-10-14T02:48:09.030Z,11.34
2022-10-14T02:50:38.942Z,11.22
2022-10-14T02:53:07.057Z,11.25
2022-10-14T02:55:35.192Z,11.21
2022-10-14T02:58:03.394Z,11.22
2022-10-14T03:00:31.705Z,11.28
2022-10-14T03:02:59.771Z,11.13
2022-10-14T03:05:32.069Z,11.16
2022-10-14T03:08:00.156Z,11.15
2022-10-14T03:10:29.826Z,11.18
2022-10-14T03:12:58.994Z,11.14
2022-10-14T03:15:32.399Z,10.98
2022-10-14T03:18:00.948Z,11.10
2022-10-14T03:20:39.258Z,11.13
2022-10-14T03:23:09.346Z,11.26
2022-10-14T03:25:39.159Z,11.00
2022-10-14T03:28:15.444Z,11.07
2022-10-14T03:30:52.804Z,11.09
2022-10-14T03:33:38.035Z,10.88
2022-10-14T03:36:11.328Z,10.83
2022-10-14T03:38:53.406Z,10.86
2022-10-14T03:41:39.091Z,10.72
2022-10-14T03:44:08.796Z,10.71
2022-10-14T03:46:39.331Z,10.65
2022-10-14T03:49:07.775Z,10.76
2022-10-14T03:51:37.272Z,10.72
2022-10-14T03:54:19.249Z,10.66
2022-10-14T03:56:47.298Z,10.56
2022-10-14T03:59:17.731Z,10.60
2022-10-14T04:01:50.030Z,10.72
2022-10-14T04:04:24.872Z,10.66
2022-10-14T04:06:54.497Z,10.84
2022-10-14T04:09:23.537Z,10.73
2022-10-14T04:11:51.863Z,10.76
2022-10-14T04:14:46.256Z,10.90
2022-10-14T04:17:14.712Z,10.76
2022-10-14T04:19:44.141Z,10.70
2022-10-14T04:22:16.423Z,10.79
2022-10-14T04:24:48.033Z,10.79
2022-10-14T04:27:16.133Z,10.79
2022-10-14T04:29:58.889Z,10.91
2022-10-14T04:32:33.264Z,10.85
2022-10-14T04:35:02.010Z,10.82
2022-10-14T04:37:32.964Z,10.78
2022-10-14T04:40:12.386Z,10.86
2022-10-14T04:42:45.739Z,10.86
2022-10-14T04:45:21.994Z,10.87
2022-10-14T04:47:56.458Z,10.81
2022-10-14T04:50:25.810Z,11.03
2022-10-14T04:53:15.303Z,11.10
2022-10-14T04:55:56.811Z,11.11
2022-10-14T04:58:25.174Z,11.00
2022-10-14T05:00:55.495Z,10.86
2022-10-14T05:03:31.050Z,10.78
2022-10-14T05:06:00.692Z,10.71
2022-10-14T05:08:30.112Z,10.66
2022-10-14T05:11:00.731Z,10.64
2022-10-14T05:13:41.561Z,10.61
2022-10-14T05:16:10.436Z,10.62
2022-10-14T05:18:39.692Z,10.59
2022-10-14T05:21:12.311Z,10.60
2022-10-14T05:23:50.921Z,10.60
2022-10-14T05:26:19.449Z,10.60
2022-10-14T05:28:48.938Z,10.59
2022-10-14T05:31:17.370Z,10.59
2022-10-14T05:33:53.208Z,10.57
2022-10-14T05:36:22.122Z,10.57
2022-10-14T05:38:51.727Z,10.58
2022-10-14T05:41:24.652Z,10.57
2022-10-14T05:43:52.743Z,10.57
2022-10-14T05:46:21.388Z,10.58
2022-10-14T05:48:54.982Z,10.62
2022-10-14T05:51:23.070Z,10.63
2022-10-14T05:53:57.282Z,10.66
2022-10-14T05:56:26.145Z,10.67
2022-10-14T05:58:54.331Z,10.68
2022-10-14T06:01:22.781Z,10.75
2022-10-14T06:03:51.353Z,10.70
2022-10-14T06:06:20.209Z,10.82
2022-10-14T06:08:48.533Z,10.80
2022-10-14T06:11:17.922Z,10.91
2022-10-14T06:13:46.099Z,10.85
2022-10-14T06:16:14.310Z,10.90
2022-10-14T06:18:42.589Z,10.90
2022-10-14T06:21:13.001Z,10.93
2022-10-14T06:23:41.198Z,10.98
2022-10-14T06:26:10.064Z,11.02
2022-10-14T06:28:40.112Z,11.04
2022-10-14T06:31:10.086Z,11.03
2022-10-14T06:33:38.217Z,11.10
2022-10-14T06:36:07.528Z,11.05
2022-10-14T06:38:35.675Z,11.00
2022-10-14T06:41:03.671Z,10.94
2022-10-14T06:43:31.961Z,10.96
2022-10-14T06:46:01.432Z,10.99
2022-10-14T06:48:29.463Z,11.02
2022-10-14T06:51:00.142Z,11.13
2022-10-14T06:53:28.317Z,11.16
2022-10-14T06:56:01.982Z,11.35
2022-10-14T06:58:30.422Z,11.37
2022-10-14T07:01:04.502Z,11.57
2022-10-14T07:03:36.400Z,11.40
2022-10-14T07:06:07.010Z,11.41
2022-10-14T07:08:35.774Z,11.50
2022-10-14T07:11:05.753Z,11.70
2022-10-14T07:13:35.125Z,11.89
2022-10-14T07:16:04.854Z,12.00
2022-10-14T07:18:33.452Z,12.21
2022-10-14T07:21:03.444Z,12.44
2022-10-14T07:23:31.655Z,12.30
2022-10-14T07:26:00.757Z,12.28
2022-10-14T07:28:29.296Z,12.44
2022-10-14T07:30:59.598Z,12.34
2022-10-14T07:33:29.514Z,12.45
2022-10-14T07:36:02.279Z,12.30
2022-10-14T07:38:30.288Z,12.18
2022-10-14T07:41:00.819Z,12.21
2022-10-14T07:43:29.398Z,12.38
2022-10-14T07:46:01.025Z,12.67
2022-10-14T07:48:38.580Z,12.84
2022-10-14T07:51:13.049Z,13.28
2022-10-14T07:53:41.222Z,13.61
2022-10-14T07:56:10.062Z,13.72
2022-10-14T07:58:43.588Z,14.00
2022-10-14T08:01:12.706Z,13.82
2022-10-14T08:03:42.274Z,13.76
2022-10-14T08:06:10.433Z,13.40
2022-10-14T08:08:39.040Z,13.29
2022-10-14T08:11:10.594Z,13.16
2022-10-14T08:13:41.943Z,12.98
2022-10-14T08:16:16.069Z,12.98
2022-10-14T08:18:47.058Z,12.84
2022-10-14T08:21:15.822Z,12.81
2022-10-14T08:23:44.275Z,13.02
2022-10-14T08:26:20.242Z,13.37
2022-10-14T08:28:48.750Z,13.49
2022-10-14T08:31:17.431Z,13.85
2022-10-14T08:33:46.964Z,13.92
2022-10-14T08:36:15.667Z,14.14
2022-10-14T08:38:44.107Z,14.43
2022-10-14T08:41:41.728Z,14.91
2022-10-14T08:44:18.407Z,14.88
2022-10-14T08:46:52.363Z,14.98
2022-10-14T08:49:27.682Z,14.94
2022-10-14T08:52:01.369Z,14.68
2022-10-14T08:54:36.416Z,14.84
2022-10-14T08:57:07.502Z,15.04
2022-10-14T08:59:42.097Z,15.16
2022-10-14T09:02:25.137Z,14.77
2022-10-14T09:04:54.703Z,14.93
2022-10-14T09:07:23.261Z,14.55
2022-10-14T09:09:54.221Z,14.71
2022-10-14T09:12:27.805Z,15.17
2022-10-14T09:15:03.524Z,15.31
2022-10-14T09:17:37.990Z,15.65
2022-10-14T09:20:15.965Z,15.93
2022-10-14T09:22:44.892Z,15.71
2022-10-14T09:25:15.613Z,15.75
2022-10-14T09:27:43.889Z,15.98
2022-10-14T09:30:15.911Z,15.98
2022-10-14T09:32:49.137Z,15.93
2022-10-14T09:35:25.446Z,16.29
2022-10-14T09:37:54.534Z,15.92
2022-10-14T09:40:30.971Z,16.15
2022-10-14T09:43:04.288Z,15.96
2022-10-14T09:45:49.758Z,16.08
2022-10-14T09:48:22.060Z,16.31
2022-10-14T09:50:55.320Z,16.36
2022-10-14T09:53:29.446Z,16.93
2022-10-14T09:56:00.349Z,18.02
2022-10-14T09:58:43.563Z,17.61
2022-10-14T10:01:17.338Z,17.28
2022-10-14T10:03:47.147Z,17.58
2022-10-14T10:06:20.609Z,17.94
2022-10-14T10:08:58.192Z,18.02
2022-10-14T10:11:33.344Z,17.68
2022-10-14T10:14:17.866Z,18.21
2022-10-14T10:16:46.418Z,17.51
2022-10-14T10:19:27.942Z,18.54
2022-10-14T10:25:01.106Z,18.19
2022-10-14T10:27:34.987Z,18.34
2022-10-14T10:30:21.973Z,18.36
2022-10-14T10:33:10.069Z,18.09
2022-10-14T10:35:55.427Z,18.66
2022-10-14T10:38:30.947Z,18.78
2022-10-14T10:41:16.816Z,18.45
2022-10-14T10:44:05.534Z,19.40
2022-10-14T10:46:51.589Z,18.67
2022-10-14T10:49:32.173Z,18.75
2022-10-14T10:52:08.751Z,18.96
2022-10-14T10:54:47.131Z,18.68
2022-10-14T10:57:30.342Z,18.92
2022-10-14T11:00:02.496Z,18.76
2022-10-14T11:02:59.620Z,18.54
2022-10-14T11:05:51.598Z,18.35
2022-10-14T11:09:18.679Z,18.05
2022-10-14T11:12:07.740Z,18.11
2022-10-14T11:15:13.235Z,18.49
2022-10-14T11:17:49.607Z,18.20
2022-10-14T11:20:37.191Z,18.03
2022-10-14T11:23:44.588Z,17.75
2022-10-14T11:26:21.366Z,17.70
2022-10-14T11:29:00.522Z,17.68
2022-10-14T11:31:39.206Z,17.63
2022-10-14T11:34:23.403Z,17.70
2022-10-14T11:37:01.611Z,17.68
2022-10-14T11:39:40.346Z,17.49
2022-10-14T11:42:32.307Z,17.44
2022-10-14T11:45:29.763Z,17.50
2022-10-14T11:48:06.062Z,17.38
2022-10-14T11:50:41.037Z,17.17
2022-10-14T11:53:16.878Z,17.13
2022-10-14T11:55:50.355Z,16.95
2022-10-14T11:58:24.527Z,17.28
2022-10-14T12:00:57.095Z,17.39
2022-10-14T12:03:44.851Z,17.92
2022-10-14T12:06:18.992Z,18.15
2022-10-14T12:08:51.634Z,18.67
2022-10-14T12:11:29.847Z,18.45
2022-10-14T12:14:06.402Z,18.47
2022-10-14T12:16:36.118Z,18.45
2022-10-14T12:19:04.302Z,18.29
2022-10-14T12:21:36.798Z,18.22
2022-10-14T12:24:10.495Z,17.75
2022-10-14T12:26:51.129Z,17.58
2022-10-14T12:29:22.643Z,17.36
2022-10-14T12:32:08.526Z,17.27
2022-10-14T12:34:39.121Z,16.88
2022-10-14T12:37:52.263Z,16.46
2022-10-14T12:40:30.591Z,16.11
2022-10-14T12:43:04.028Z,16.04
2022-10-14T12:45:35.823Z,16.12
2022-10-14T12:48:16.819Z,16.06
2022-10-14T12:50:46.376Z,15.83
2022-10-14T12:53:22.596Z,15.70
2022-10-14T12:55:53.446Z,15.30
2022-10-14T12:58:27.997Z,14.93
2022-10-14T13:01:00.316Z,14.79
2022-10-14T13:03:33.949Z,14.58
2022-10-14T13:06:29.266Z,14.39
2022-10-14T13:09:39.849Z,14.18
2022-10-14T13:12:42.104Z,14.06
2022-10-14T13:15:59.644Z,14.01
2022-10-14T13:18:51.555Z,13.97
2022-10-14T13:21:50.698Z,13.69
2022-10-14T13:24:25.070Z,13.80
2022-10-14T13:27:07.523Z,13.46
2022-10-14T13:29:54.023Z,13.61
2022-10-14T13:32:31.691Z,13.68
2022-10-14T13:35:09.307Z,13.55
2022-10-14T13:37:43.427Z,13.39
2022-10-14T13:40:22.949Z,13.57
2022-10-14T13:42:54.185Z,13.60
2022-10-14T13:45:25.274Z,13.61
2022-10-14T13:47:54.647Z,13.86
2022-10-14T13:50:26.745Z,13.75
2022-10-14T13:52:57.883Z,13.84
2022-10-14T13:55:28.452Z,14.03
2022-10-14T13:58:18.571Z,14.13
2022-10-14T14:00:53.096Z,14.07
2022-10-14T14:03:25.448Z,14.12
2022-10-14T14:05:55.486Z,14.40
2022-10-14T14:08:43.161Z,14.65
2022-10-14T14:11:19.620Z,14.53
2022-10-14T14:14:01.090Z,14.56
2022-10-14T14:16:33.182Z,14.54
2022-10-14T14:19:08.664Z,14.51
2022-10-14T14:21:39.297Z,15.03
2022-10-14T14:24:25.106Z,14.87
2022-10-14T14:26:55.742Z,14.50
2022-10-14T14:29:28.633Z,14.33
2022-10-14T14:32:06.632Z,14.13
2022-10-14T14:34:36.999Z,14.68
2022-10-14T14:37:34.393Z,14.70
2022-10-14T14:40:00.710Z,14.75
2022-10-14T14:42:32.296Z,14.28
2022-10-14T14:45:04.610Z,14.33
2022-10-14T14:47:33.635Z,14.69
2022-10-14T14:50:29.088Z,14.94
2022-10-14T14:52:53.846Z,14.94
2022-10-14T14:55:36.888Z,14.57
2022-10-14T14:58:08.011Z,14.37
2022-10-14T15:00:36.003Z,14.36
2022-10-14T15:03:05.417Z,14.51
2022-10-14T15:05:33.352Z,14.31
2022-10-14T15:08:03.661Z,14.34
2022-10-14T15:10:32.655Z,14.31
2022-10-14T15:13:02.776Z,14.34
2022-10-14T15:15:35.304Z,14.32
2022-10-14T15:18:15.179Z,14.31
2022-10-14T15:20:44.698Z,14.30
2022-10-14T15:23:42.750Z,14.27
2022-10-14T15:26:25.573Z,14.26
2022-10-14T15:29:17.116Z,14.20
2022-10-14T15:31:46.943Z,14.14
2022-10-14T15:34:23.287Z,14.19
2022-10-14T15:36:54.056Z,14.23
2022-10-14T15:39:23.716Z,14.12
2022-10-14T15:41:52.160Z,14.12
2022-10-14T15:44:20.161Z,14.12
2022-10-14T15:47:05.852Z,14.09
2022-10-14T15:49:37.250Z,14.10
2022-10-14T15:52:05.323Z,14.08
2022-10-14T15:54:35.710Z,14.12
2022-10-14T15:57:05.723Z,14.08
2022-10-14T15:59:36.210Z,14.01
2022-10-14T16:02:05.638Z,14.04
2022-10-14T16:04:35.257Z,13.97
2022-10-14T16:07:03.276Z,13.96
2022-10-14T16:09:31.309Z,13.87
2022-10-14T16:12:03.611Z,13.82
2022-10-14T16:14:31.608Z,13.78
2022-10-14T16:17:05.482Z,13.73
2022-10-14T16:19:34.301Z,13.75
2022-10-14T16:22:05.962Z,13.79
2022-10-14T16:24:34.219Z,13.81
2022-10-14T16:27:07.487Z,13.78
2022-10-14T16:29:36.442Z,13.71
2022-10-14T16:32:04.436Z,13.71
2022-10-14T16:34:32.519Z,13.70
2022-10-14T16:37:00.423Z,13.94
2022-10-14T16:39:28.533Z,13.83
2022-10-14T16:41:56.644Z,14.05
2022-10-14T16:44:27.527Z,13.97
2022-10-14T16:47:15.110Z,13.97
2022-10-14T16:49:44.964Z,14.07
2022-10-14T16:52:13.141Z,14.03
2022-10-14T16:54:41.354Z,14.01
2022-10-14T16:57:09.427Z,13.97
2022-10-14T16:59:39.059Z,13.61
2022-10-14T17:02:10.598Z,13.79
2022-10-14T17:04:39.301Z,13.59
2022-10-14T17:07:08.932Z,13.74
2022-10-14T17:09:39.396Z,13.61
2022-10-14T17:12:11.242Z,13.62
2022-10-14T17:14:43.994Z,13.71
2022-10-14T17:17:13.394Z,13.76
2022-10-14T17:19:42.583Z,13.79
2022-10-14T17:22:10.637Z,13.69
2022-10-14T17:24:38.790Z,13.67
2022-10-14T17:27:10.872Z,13.62
2022-10-14T17:29:39.199Z,13.63
2022-10-14T17:32:09.011Z,13.64
2022-10-14T17:34:37.029Z,13.75
2022-10-14T17:39:41.014Z,13.73
2022-10-14T17:42:08.988Z,13.85
2022-10-14T17:44:43.423Z,13.82
2022-10-14T17:47:13.116Z,13.85
2022-10-14T17:49:41.536Z,13.84
2022-10-14T17:52:09.589Z,13.80
2022-10-14T17:54:37.887Z,13.83
2022-10-14T17:57:05.941Z,13.72
2022-10-14T17:59:34.830Z,13.72
2022-10-14T18:02:03.699Z,13.76
2022-10-14T18:04:33.735Z,13.80
2022-10-14T18:07:01.795Z,13.82
2022-10-14T18:09:30.098Z,13.83
2022-10-14T18:12:13.590Z,13.77
2022-10-14T18:14:42.372Z,13.65
2022-10-14T18:17:12.468Z,13.70
2022-10-14T18:19:42.437Z,13.78
2022-10-14T18:22:11.613Z,13.77
2022-10-14T18:24:39.772Z,13.56
2022-10-14T18:27:07.864Z,13.71
2022-10-14T18:29:35.897Z,13.58
2022-10-14T18:32:04.419Z,13.75
2022-10-14T18:34:33.041Z,13.65
2022-10-14T18:37:02.404Z,13.57
2022-10-14T18:39:30.398Z,13.43
2022-10-14T18:41:59.083Z,13.59
2022-10-14T18:44:27.132Z,13.60
2022-10-14T18:46:55.339Z,13.67
2022-10-14T18:49:23.790Z,13.52
2022-10-14T18:51:53.201Z,13.47
2022-10-14T18:54:24.821Z,13.44
2022-10-14T18:56:54.982Z,13.46
2022-10-14T18:59:24.560Z,13.40
2022-10-14T19:01:53.440Z,13.43
2022-10-14T19:04:24.022Z,13.43
2022-10-14T19:06:52.009Z,13.40
2022-10-14T19:09:28.839Z,13.44
2022-10-14T19:11:58.997Z,13.45
2022-10-14T19:14:28.558Z,13.51
2022-10-14T19:16:56.888Z,13.43
2022-10-14T19:19:25.266Z,13.32
2022-10-14T19:21:54.383Z,13.53
2022-10-14T19:24:23.928Z,13.66
2022-10-14T19:26:54.116Z,13.49
2022-10-14T19:29:22.154Z,13.50
2022-10-14T19:31:51.109Z,13.33
2022-10-14T19:34:19.393Z,13.34
2022-10-14T19:36:47.651Z,13.30
2022-10-14T19:39:18.925Z,13.29
2022-10-14T19:41:48.468Z,13.36
2022-10-14T19:44:17.855Z,13.44
2022-10-14T19:46:46.235Z,13.31
2022-10-14T19:49:15.735Z,13.30
2022-10-14T19:51:43.937Z,13.35
2022-10-14T19:54:12.902Z,13.28
2022-10-14T19:56:41.451Z,13.43
2022-10-14T19:59:13.446Z,13.29
2022-10-14T20:01:42.390Z,13.31
2022-10-14T20:04:10.553Z,13.26
2022-10-14T20:06:40.113Z,13.20
2022-10-14T20:09:09.289Z,13.19
2022-10-14T20:11:37.419Z,13.30
2022-10-14T20:14:05.476Z,13.21
2022-10-14T20:16:34.869Z,13.24
2022-10-14T20:19:02.974Z,13.20
2022-10-14T20:21:31.751Z,13.16
2022-10-14T20:24:00.585Z,13.09
2022-10-14T20:26:28.752Z,13.11
2022-10-14T20:28:56.801Z,13.01
2022-10-14T20:31:26.496Z,13.26
2022-10-14T20:33:57.676Z,13.10
2022-10-14T20:36:26.146Z,13.13
2022-10-14T20:38:54.181Z,13.09
2022-10-14T20:41:25.676Z,13.06
2022-10-14T20:43:55.045Z,13.03
2022-10-14T20:46:24.815Z,13.08
2022-10-14T20:48:59.076Z,13.05
2022-10-14T20:51:27.289Z,12.97
2022-10-14T20:54:01.791Z,12.94
2022-10-14T20:56:34.463Z,12.96
2022-10-14T20:59:05.541Z,13.04
2022-10-14T21:01:36.757Z,13.09
2022-10-14T21:04:08.225Z,13.06
2022-10-14T21:06:38.712Z,13.06
2022-10-14T21:09:07.422Z,13.09
2022-10-14T21:11:35.837Z,12.96
2022-10-14T21:14:04.177Z,12.86
2022-10-14T21:16:34.746Z,12.90
2022-10-14T21:19:04.720Z,12.84
2022-10-14T21:21:36.203Z,12.85
2022-10-14T21:24:04.895Z,12.76
2022-10-14T21:26:33.477Z,12.79
2022-10-14T21:29:02.188Z,12.79
2022-10-14T21:31:30.760Z,12.80
2022-10-14T21:34:05.359Z,12.72
2022-10-14T21:36:36.210Z,12.68
2022-10-14T21:39:07.156Z,12.68
2022-10-14T21:41:35.915Z,12.71
2022-10-14T21:44:04.268Z,12.64
2022-10-14T21:46:33.277Z,12.59
2022-10-14T21:49:01.408Z,12.79
2022-10-14T21:51:30.983Z,12.69
2022-10-14T21:54:00.388Z,12.49
2022-10-14T21:56:28.702Z,12.54
2022-10-14T21:58:57.789Z,12.54
2022-10-14T22:01:28.164Z,12.45
2022-10-14T22:03:57.990Z,12.47
2022-10-14T22:06:26.711Z,12.50
2022-10-14T22:08:56.370Z,12.47
2022-10-14T22:11:27.410Z,12.46
2022-10-14T22:13:57.431Z,12.49
2022-10-14T22:16:28.810Z,12.52
2022-10-14T22:18:59.014Z,12.42
2022-10-14T22:21:29.582Z,12.31
2022-10-14T22:23:58.833Z,12.35
2022-10-14T22:26:30.452Z,12.35
2022-10-14T22:28:59.701Z,12.31
2022-10-14T22:31:28.786Z,12.30
2022-10-14T22:33:56.874Z,12.32
2022-10-14T22:36:28.218Z,12.27
2022-10-14T22:38:57.962Z,12.30
2022-10-14T22:41:33.917Z,12.30
2022-10-14T22:44:04.029Z,12.33
2022-10-14T22:46:33.683Z,12.31
2022-10-14T22:49:02.106Z,12.32
2022-10-14T22:51:32.799Z,12.27
2022-10-14T22:54:01.228Z,12.30
2022-10-14T22:56:32.643Z,12.27
2022-10-14T22:59:02.778Z,12.36
2022-10-14T23:01:31.004Z,12.31
2022-10-14T23:04:00.018Z,12.27
2022-10-14T23:06:29.509Z,12.32
2022-10-14T23:08:59.868Z,12.30
2022-10-14T23:11:29.379Z,12.31
2022-10-14T23:14:01.570Z,12.29
2022-10-14T23:16:32.943Z,12.26
2022-10-14T23:19:00.984Z,12.24
2022-10-14T23:21:30.879Z,12.23
2022-10-14T23:24:01.666Z,12.40
2022-10-14T23:26:33.194Z,12.34
2022-10-14T23:29:05.205Z,12.32
2022-10-14T23:31:35.438Z,12.30
2022-10-14T23:34:06.261Z,12.28
2022-10-14T23:36:34.366Z,12.30
2022-10-14T23:39:02.516Z,12.24
2022-10-14T23:41:30.632Z,12.31
2022-10-14T23:43:58.667Z,12.43
2022-10-14T23:46:28.052Z,12.43
2022-10-14T23:49:07.310Z,12.38
2022-10-14T23:51:42.411Z,12.31
2022-10-14T23:54:10.490Z,12.26
2022-10-14T23:56:38.510Z,12.21
2022-10-14T23:59:06.575Z,12.20
